Time;durP1;ratioP1;P1;durP2;ratioP2;P2;SDS_P1;SDS_P2;PMS_P1;PMS_P2;Temp;Humidity;BMP_temperature;BMP_pressure;BME280_temperature;BME280_humidity;BME280_pressure;Samples;Min_cycle;Max_cycle;Signal;HPM_P1;HPM_P2
2023/05/26 00:00:49;;;;;;;38.00;6.13;;;10.80;99.90;;;;;;4956676;28;20054;-73
2023/05/26 00:03:16;;;;;;;33.80;6.55;;;10.80;99.90;;;;;;4956186;29;20019;-73
2023/05/26 00:05:43;;;;;;;32.38;5.57;;;10.80;99.90;;;;;;4956096;29;20059;-72
2023/05/26 00:08:09;;;;;;;36.58;6.00;;;10.80;99.90;;;;;;4953573;28;20028;-73
2023/05/26 00:10:35;;;;;;;28.42;5.60;;;10.80;99.90;;;;;;4946977;29;20032;-73
2023/05/26 00:13:01;;;;;;;41.85;7.10;;;10.80;99.90;;;;;;4955823;29;20027;-73
2023/05/26 00:15:26;;;;;;;28.63;6.03;;;10.80;99.90;;;;;;4956213;29;20015;-73
2023/05/26 00:17:52;;;;;;;28.80;5.53;;;10.80;99.90;;;;;;4956097;28;20482;-73
2023/05/26 00:20:18;;;;;;;38.40;6.63;;;10.80;99.90;;;;;;4956202;28;20038;-73
2023/05/26 00:22:44;;;;;;;30.63;6.32;;;10.70;99.90;;;;;;4955775;28;20103;-73
2023/05/26 00:25:09;;;;;;;37.58;6.63;;;10.70;99.90;;;;;;4953627;28;20060;-73
2023/05/26 00:27:35;;;;;;;24.55;5.88;;;10.60;99.90;;;;;;4955822;28;20063;-73
2023/05/26 00:30:01;;;;;;;32.50;5.57;;;10.60;99.90;;;;;;4954060;29;20049;-73
2023/05/26 00:32:26;;;;;;;38.58;7.05;;;10.60;99.90;;;;;;4945012;29;20110;-73
2023/05/26 00:34:52;;;;;;;31.90;6.00;;;10.60;99.90;;;;;;4955547;29;20070;-73
2023/05/26 00:37:18;;;;;;;30.40;6.15;;;10.60;99.90;;;;;;4955594;28;20028;-73
2023/05/26 00:39:44;;;;;;;37.13;6.25;;;10.60;99.90;;;;;;4955487;28;20047;-72
2023/05/26 00:42:10;;;;;;;31.55;6.47;;;10.60;99.90;;;;;;4954353;28;20019;-73
2023/05/26 00:44:36;;;;;;;29.02;5.70;;;10.60;99.90;;;;;;4952529;29;20037;-72
2023/05/26 00:47:01;;;;;;;33.47;5.68;;;10.60;99.90;;;;;;4955331;28;20402;-72
2023/05/26 00:49:27;;;;;;;35.08;6.20;;;10.50;99.90;;;;;;4954970;29;20034;-73
2023/05/26 00:51:53;;;;;;;30.95;6.00;;;10.50;99.90;;;;;;4950011;29;20035;-73
2023/05/26 00:54:21;;;;;;;35.70;6.22;;;10.50;99.90;;;;;;4949659;28;20031;-73
2023/05/26 00:56:51;;;;;;;30.45;6.35;;;10.50;99.90;;;;;;4948368;29;20035;-73
2023/05/26 00:59:18;;;;;;;31.67;6.53;;;10.40;99.90;;;;;;4955284;29;20459;-73
2023/05/26 01:01:44;;;;;;;32.58;5.55;;;10.40;99.90;;;;;;4955180;28;20032;-73
2023/05/26 01:04:09;;;;;;;29.40;5.50;;;10.40;99.90;;;;;;4954902;28;20023;-73
2023/05/26 01:06:36;;;;;;;33.15;5.50;;;10.40;99.90;;;;;;4953476;28;20514;-73
2023/05/26 01:09:03;;;;;;;36.17;5.90;;;10.40;99.90;;;;;;4953126;29;20151;-73
2023/05/26 01:11:40;;;;;;;38.38;7.25;;;10.30;99.90;;;;;;4950064;29;20035;-73
2023/05/26 01:14:24;;;;;;;30.50;5.70;;;10.30;99.90;;;;;;4948658;29;20093;-72
2023/05/26 01:16:58;;;;;;;37.97;6.03;;;10.30;99.90;;;;;;4954344;28;20050;-72
2023/05/26 01:19:46;;;;;;;33.40;5.57;;;10.20;99.90;;;;;;4953109;28;20027;-73
2023/05/26 01:22:48;;;;;;;29.33;5.57;;;10.20;99.90;;;;;;4954475;28;20034;-73
2023/05/26 01:25:44;;;;;;;31.20;6.07;;;10.20;99.90;;;;;;4946177;29;20110;-73
2023/05/26 01:28:16;;;;;;;;;;;10.20;99.90;;;;;;4955088;29;20074;-73
2023/05/26 01:30:43;;;;;;;32.03;5.93;;;10.20;99.90;;;;;;4954394;28;19921;-73
2023/05/26 01:33:09;;;;;;;37.05;5.68;;;10.10;99.90;;;;;;4948849;28;20374;-73
2023/05/26 01:35:35;;;;;;;33.67;5.85;;;10.10;99.90;;;;;;4950502;29;20110;-73
2023/05/26 01:38:01;;;;;;;34.22;5.57;;;10.10;99.90;;;;;;4953402;28;20106;-73
2023/05/26 01:40:29;;;;;;;35.20;5.78;;;10.10;99.90;;;;;;4950331;29;20102;-73
2023/05/26 01:43:05;;;;;;;34.03;5.57;;;10.10;99.90;;;;;;4953875;29;20075;-73
2023/05/26 01:45:48;;;;;;;37.83;5.68;;;10.10;99.90;;;;;;4954642;28;20038;-73
2023/05/26 01:48:16;;;;;;;35.17;5.45;;;10.10;99.90;;;;;;4945203;29;20028;-73
2023/05/26 01:51:04;;;;;;;31.92;6.03;;;10.10;99.90;;;;;;4946954;28;20063;-73
2023/05/26 01:53:33;;;;;;;27.67;5.10;;;10.10;99.90;;;;;;4950926;28;20030;-73
2023/05/26 01:56:00;;;;;;;28.08;5.18;;;10.00;99.90;;;;;;4964742;29;20023;-72
2023/05/26 01:58:26;;;;;;;30.83;5.50;;;10.00;99.90;;;;;;4955731;28;20023;-73
2023/05/26 02:00:52;;;;;;;27.20;4.63;;;10.00;99.90;;;;;;4952097;28;20015;-73
2023/05/26 02:03:18;;;;;;;26.33;5.00;;;10.00;99.90;;;;;;4951916;28;20088;-73
2023/05/26 02:05:45;;;;;;;33.25;6.25;;;9.90;99.90;;;;;;4946462;29;20051;-73
2023/05/26 02:08:11;;;;;;;27.92;5.18;;;9.90;99.90;;;;;;4953046;28;20027;-73
2023/05/26 02:10:37;;;;;;;32.05;5.57;;;9.90;99.90;;;;;;4950796;28;20115;-73
2023/05/26 02:13:03;;;;;;;38.90;5.85;;;9.90;99.90;;;;;;4953380;28;20046;-72
2023/05/26 02:15:28;;;;;;;34.47;5.90;;;9.90;99.90;;;;;;4950363;28;20028;-72
2023/05/26 02:17:57;;;;;;;29.42;5.15;;;9.90;99.90;;;;;;4954914;29;20026;-72
2023/05/26 02:20:23;;;;;;;36.95;5.22;;;9.80;99.90;;;;;;4944704;29;20031;-72
2023/05/26 02:22:49;;;;;;;32.58;5.22;;;9.80;99.90;;;;;;4954145;29;20375;-73
2023/05/26 02:25:15;;;;;;;28.63;4.88;;;9.80;99.90;;;;;;4950867;29;20024;-72
2023/05/26 02:27:40;;;;;;;27.58;5.43;;;9.80;99.90;;;;;;4952435;29;20019;-72
2023/05/26 02:30:07;;;;;;;32.60;5.43;;;9.80;99.90;;;;;;4951290;29;20110;-73
2023/05/26 02:32:34;;;;;;;34.75;5.93;;;9.80;99.90;;;;;;4936354;29;20106;-72
2023/05/26 02:35:00;;;;;;;31.55;5.88;;;9.70;99.90;;;;;;4950409;29;20024;-72
2023/05/26 02:37:29;;;;;;;35.88;5.63;;;9.70;99.90;;;;;;4953948;29;20019;-72
2023/05/26 02:39:55;;;;;;;37.65;5.40;;;9.60;99.90;;;;;;4953384;28;20552;-72
2023/05/26 02:42:21;;;;;;;29.83;5.93;;;9.60;99.90;;;;;;4953376;28;20022;-72
2023/05/26 02:44:46;;;;;;;33.28;5.15;;;9.60;99.90;;;;;;4953290;28;20062;-72
2023/05/26 02:47:12;;;;;;;36.33;5.30;;;9.60;99.90;;;;;;4951619;28;20344;-74
2023/05/26 02:49:37;;;;;;;34.58;5.25;;;9.60;99.90;;;;;;4953312;28;20039;-72
2023/05/26 02:52:03;;;;;;;38.17;5.57;;;9.60;99.90;;;;;;4952047;29;20063;-72
2023/05/26 02:54:29;;;;;;;29.33;4.82;;;9.60;99.90;;;;;;4951134;28;20251;-72
2023/05/26 02:56:55;;;;;;;29.92;5.95;;;9.60;99.90;;;;;;4951710;28;20066;-71
2023/05/26 02:59:20;;;;;;;29.42;5.60;;;9.50;99.90;;;;;;4953275;29;20372;-72
2023/05/26 03:01:46;;;;;;;34.13;5.80;;;9.50;99.90;;;;;;4946006;29;20483;-72
2023/05/26 03:04:12;;;;;;;27.88;5.53;;;9.50;99.90;;;;;;4952168;29;20121;-72
2023/05/26 03:06:38;;;;;;;31.75;5.65;;;9.50;99.90;;;;;;4948380;28;20023;-73
2023/05/26 03:09:04;;;;;;;30.23;5.00;;;9.50;99.90;;;;;;4956619;29;20041;-72
2023/05/26 03:11:29;;;;;;;33.67;5.82;;;9.50;99.90;;;;;;4956664;28;20094;-72
2023/05/26 03:13:55;;;;;;;24.98;5.30;;;9.60;99.90;;;;;;4957064;28;20102;-71
2023/05/26 03:16:23;;;;;;;35.03;5.00;;;9.60;99.90;;;;;;4955306;28;20102;-72
2023/05/26 03:18:49;;;;;;;26.80;5.00;;;9.60;99.90;;;;;;4956794;29;20099;-72
2023/05/26 03:21:16;;;;;;;30.27;5.22;;;9.50;99.90;;;;;;4957094;28;20074;-72
2023/05/26 03:23:41;;;;;;;41.85;5.80;;;9.50;99.90;;;;;;4955446;28;20027;-72
2023/05/26 03:26:07;;;;;;;34.17;5.47;;;9.50;99.90;;;;;;4955821;28;20037;-71
2023/05/26 03:28:33;;;;;;;36.55;5.20;;;9.50;99.90;;;;;;4957273;29;20098;-72
2023/05/26 03:30:58;;;;;;;31.58;5.25;;;9.50;99.90;;;;;;4947804;28;20027;-72
2023/05/26 03:33:24;;;;;;;29.90;5.18;;;9.50;99.90;;;;;;4956667;29;20506;-72
2023/05/26 03:35:50;;;;;;;32.80;5.93;;;9.50;99.90;;;;;;4956239;29;20028;-72
2023/05/26 03:38:15;;;;;;;30.02;5.43;;;9.50;99.90;;;;;;4941756;28;20027;-73
2023/05/26 03:40:41;;;;;;;36.15;6.20;;;9.40;99.90;;;;;;4953398;29;20051;-73
2023/05/26 03:43:07;;;;;;;37.08;5.50;;;9.40;99.90;;;;;;4942920;28;20415;-73
2023/05/26 03:45:32;;;;;;;33.55;5.72;;;9.40;99.90;;;;;;4956512;29;20051;-73
2023/05/26 03:47:58;;;;;;;34.92;5.82;;;9.50;99.90;;;;;;4956724;28;20035;-73
2023/05/26 03:50:23;;;;;;;27.52;5.78;;;9.40;99.90;;;;;;4956311;29;20028;-73
2023/05/26 03:52:49;;;;;;;34.58;5.45;;;9.40;99.90;;;;;;4956493;29;20046;-73
2023/05/26 03:55:17;;;;;;;40.97;6.13;;;9.40;99.90;;;;;;4956322;29;20426;-73
2023/05/26 03:57:43;;;;;;;33.15;5.57;;;9.50;99.90;;;;;;4955179;29;20111;-73
2023/05/26 04:00:13;;;;;;;31.83;5.22;;;9.50;99.90;;;;;;4943873;29;20486;-73
2023/05/26 04:02:39;;;;;;;37.53;5.50;;;9.50;99.90;;;;;;4953010;28;20442;-72
2023/05/26 04:05:05;;;;;;;35.17;6.22;;;9.50;99.90;;;;;;4941674;28;20038;-76
2023/05/26 04:07:31;;;;;;;33.72;5.30;;;9.50;99.90;;;;;;4954885;29;20032;-71
2023/05/26 04:09:56;;;;;;;34.88;5.80;;;9.50;99.90;;;;;;4956469;29;20027;-72
2023/05/26 04:12:22;;;;;;;35.58;6.00;;;9.50;99.90;;;;;;4951913;28;20024;-72
2023/05/26 04:14:48;;;;;;;26.30;5.13;;;9.50;99.90;;;;;;4947331;29;20050;-72
2023/05/26 04:17:14;;;;;;;31.17;5.95;;;9.50;99.90;;;;;;4955937;28;20070;-72
2023/05/26 04:19:39;;;;;;;25.02;5.20;;;9.50;99.90;;;;;;4954663;28;20051;-72
2023/05/26 04:22:05;;;;;;;34.83;5.57;;;9.60;99.90;;;;;;4955793;29;20030;-73
2023/05/26 04:24:31;;;;;;;28.58;5.05;;;9.60;99.90;;;;;;4954703;29;20027;-72
2023/05/26 04:26:57;;;;;;;32.85;5.45;;;9.60;99.90;;;;;;4955409;29;20778;-72
2023/05/26 04:29:23;;;;;;;35.38;5.65;;;9.60;99.90;;;;;;4951978;28;20035;-72
2023/05/26 04:31:50;;;;;;;27.35;5.05;;;9.60;99.90;;;;;;4955630;29;20030;-72
2023/05/26 04:34:21;;;;;;;29.77;5.25;;;9.60;99.90;;;;;;4955861;28;20019;-73
2023/05/26 04:36:48;;;;;;;33.58;5.63;;;9.70;99.90;;;;;;4955648;28;20042;-71
2023/05/26 04:39:14;;;;;;;33.08;5.47;;;9.70;99.90;;;;;;4955306;29;20067;-72
2023/05/26 04:41:41;;;;;;;34.47;6.22;;;9.70;99.90;;;;;;4955608;29;20034;-72
2023/05/26 04:44:07;;;;;;;35.63;6.25;;;9.70;99.90;;;;;;4955777;29;20098;-72
2023/05/26 04:46:37;;;;;;;39.17;6.50;;;9.70;99.90;;;;;;4955270;28;20051;-72
2023/05/26 04:49:03;;;;;;;30.45;5.28;;;9.80;99.90;;;;;;4955326;29;20027;-72
2023/05/26 04:51:31;;;;;;;38.28;6.30;;;9.80;99.90;;;;;;4955402;28;20027;-72
2023/05/26 04:53:57;;;;;;;33.15;5.75;;;9.80;99.90;;;;;;4955477;28;20082;-72
2023/05/26 04:56:22;;;;;;;45.40;6.55;;;9.80;99.90;;;;;;4955373;29;20050;-71
2023/05/26 04:58:48;;;;;;;41.38;5.82;;;9.90;99.90;;;;;;4954674;29;20367;-72
2023/05/26 05:01:16;;;;;;;33.67;5.97;;;9.90;99.90;;;;;;4946105;28;20031;-72
2023/05/26 05:03:42;;;;;;;30.08;5.40;;;10.00;99.90;;;;;;4952138;29;20102;-72
2023/05/26 05:06:09;;;;;;;28.38;5.70;;;10.00;99.90;;;;;;4954944;29;20015;-72
2023/05/26 05:08:36;;;;;;;31.42;5.47;;;10.00;99.90;;;;;;4954948;28;20419;-72
2023/05/26 05:11:02;;;;;;;37.75;5.72;;;10.00;99.90;;;;;;4953326;29;20027;-72
2023/05/26 05:13:28;;;;;;;29.63;5.63;;;10.00;99.90;;;;;;4955166;29;20030;-72
2023/05/26 05:15:54;;;;;;;33.03;5.70;;;10.10;99.90;;;;;;4955281;29;20626;-73
2023/05/26 05:18:19;;;;;;;39.97;6.13;;;10.10;99.90;;;;;;4946503;28;20023;-72
2023/05/26 05:20:45;;;;;;;31.65;5.78;;;10.10;99.90;;;;;;4954021;29;20379;-72
2023/05/26 05:23:11;;;;;;;38.38;5.72;;;10.20;99.90;;;;;;4948731;29;20036;-73
2023/05/26 05:25:36;;;;;;;30.27;5.55;;;10.20;99.90;;;;;;4950239;29;20027;-73
2023/05/26 05:28:02;;;;;;;29.65;5.90;;;10.20;99.90;;;;;;4952648;28;20016;-72
2023/05/26 05:30:28;;;;;;;37.83;5.72;;;10.30;99.90;;;;;;4954854;29;20030;-73
2023/05/26 05:32:53;;;;;;;28.65;5.78;;;10.30;99.90;;;;;;4954783;28;20034;-73
2023/05/26 05:35:19;;;;;;;35.60;5.78;;;10.40;99.90;;;;;;4947079;29;20480;-73
2023/05/26 05:37:44;;;;;;;31.35;5.95;;;10.40;99.90;;;;;;4944916;29;20019;-73
2023/05/26 05:40:11;;;;;;;31.67;5.68;;;10.40;99.90;;;;;;4953658;28;20142;-73
2023/05/26 05:42:36;;;;;;;34.20;6.30;;;10.50;99.90;;;;;;4954039;28;20419;-73
2023/05/26 05:45:04;;;;;;;36.20;6.15;;;10.50;99.90;;;;;;4946000;29;20029;-72
2023/05/26 05:47:30;;;;;;;36.47;5.47;;;10.60;99.90;;;;;;4943732;29;20055;-73
2023/05/26 05:49:56;;;;;;;32.53;5.82;;;10.60;99.90;;;;;;4952423;29;20125;-73
2023/05/26 05:52:21;;;;;;;32.05;5.82;;;10.60;99.90;;;;;;4949805;29;20035;-72
2023/05/26 05:54:47;;;;;;;36.70;6.20;;;10.70;99.90;;;;;;4951109;29;20055;-73
2023/05/26 05:57:14;;;;;;;30.35;5.68;;;10.80;99.90;;;;;;4951148;28;20030;-73
2023/05/26 05:59:40;;;;;;;33.53;5.78;;;10.80;99.90;;;;;;4952044;29;20484;-72
2023/05/26 06:02:05;;;;;;;36.95;5.35;;;10.80;99.90;;;;;;4981325;28;20122;-73
2023/05/26 06:04:31;;;;;;;41.17;5.88;;;10.90;99.90;;;;;;4956505;29;20023;-75
2023/05/26 06:06:57;;;;;;;32.17;5.80;;;10.90;99.90;;;;;;4964607;29;20477;-72
2023/05/26 06:09:22;;;;;;;34.10;5.63;;;10.90;99.90;;;;;;4964147;29;20086;-72
2023/05/26 06:11:48;;;;;;;34.50;5.63;;;11.00;99.90;;;;;;4961210;29;20059;-72
2023/05/26 06:14:13;;;;;;;35.40;5.32;;;11.00;99.90;;;;;;4955034;28;20078;-72
2023/05/26 06:16:39;;;;;;;38.08;6.05;;;11.00;99.90;;;;;;4954186;28;20102;-72
2023/05/26 06:19:05;;;;;;;28.55;4.95;;;11.10;99.90;;;;;;4953711;29;20076;-72
2023/05/26 06:21:31;;;;;;;36.83;6.20;;;11.20;99.90;;;;;;4947115;29;20066;-72
2023/05/26 06:23:57;;;;;;;26.70;4.78;;;11.20;99.90;;;;;;4950209;29;20034;-72
2023/05/26 06:26:23;;;;;;;32.40;5.28;;;11.20;99.90;;;;;;4953916;28;20639;-73
2023/05/26 06:28:48;;;;;;;35.42;5.85;;;11.30;99.90;;;;;;4975390;28;20110;-72
2023/05/26 06:31:15;;;;;;;33.10;5.30;;;11.40;99.90;;;;;;4949760;29;20044;-73
2023/05/26 06:33:41;;;;;;;42.25;5.80;;;11.40;99.90;;;;;;4942183;29;20026;-73
2023/05/26 06:36:07;;;;;;;36.00;5.35;;;11.50;99.90;;;;;;4952523;29;20494;-72
2023/05/26 06:38:32;;;;;;;36.33;6.43;;;11.50;99.90;;;;;;4953552;28;20032;-73
2023/05/26 06:40:58;;;;;;;37.25;6.03;;;11.60;99.90;;;;;;4955449;28;20041;-73
2023/05/26 06:43:26;;;;;;;31.42;5.25;;;11.70;99.90;;;;;;4957672;28;20102;-73
2023/05/26 06:45:52;;;;;;;31.17;5.40;;;11.90;99.90;;;;;;4956437;29;20019;-73
2023/05/26 06:48:18;;;;;;;33.40;5.57;;;12.00;99.90;;;;;;4954413;28;20026;-71
2023/05/26 06:50:43;;;;;;;31.45;6.25;;;12.10;99.90;;;;;;4956146;29;20034;-72
2023/05/26 06:53:09;;;;;;;25.67;5.50;;;12.10;99.90;;;;;;4956876;28;20500;-71
2023/05/26 06:55:34;;;;;;;36.13;6.13;;;12.20;99.90;;;;;;4957273;28;20094;-71
2023/05/26 06:58:00;;;;;;;34.63;5.57;;;12.30;99.90;;;;;;4957600;29;20031;-73
2023/05/26 07:00:26;;;;;;;28.17;5.40;;;12.40;99.90;;;;;;4946715;29;20031;-72
2023/05/26 07:02:51;;;;;;;31.00;5.50;;;12.50;99.90;;;;;;4957336;28;20039;-72
2023/05/26 07:05:17;;;;;;;25.42;5.13;;;12.60;99.90;;;;;;4954472;28;20028;-72
2023/05/26 07:07:42;;;;;;;37.15;5.97;;;12.70;99.90;;;;;;4958155;29;20079;-72
2023/05/26 07:10:09;;;;;;;24.00;4.97;;;12.80;99.90;;;;;;4958392;28;20027;-72
2023/05/26 07:12:34;;;;;;;30.25;5.25;;;12.80;99.90;;;;;;4957019;28;20036;-72
2023/05/26 07:15:00;;;;;;;34.22;5.07;;;12.70;99.90;;;;;;4974272;28;20036;-72
2023/05/26 07:17:25;;;;;;;22.52;5.25;;;12.80;99.90;;;;;;4957357;29;20015;-73
2023/05/26 07:19:51;;;;;;;30.92;5.00;;;12.80;99.90;;;;;;4956878;28;20493;-73
2023/05/26 07:22:16;;;;;;;32.75;4.63;;;12.80;99.90;;;;;;4956953;29;20118;-73
2023/05/26 07:24:42;;;;;;;26.92;5.47;;;12.90;99.90;;;;;;4957025;29;20078;-73
2023/05/26 07:27:08;;;;;;;28.67;4.65;;;12.90;99.90;;;;;;4956794;29;20031;-73
2023/05/26 07:29:33;;;;;;;28.70;5.20;;;13.00;99.90;;;;;;4956552;29;20023;-73
2023/05/26 07:31:59;;;;;;;36.75;5.45;;;13.10;99.90;;;;;;4957156;28;20031;-73
2023/05/26 07:34:25;;;;;;;29.88;5.65;;;13.30;99.90;;;;;;4955040;29;20030;-73
2023/05/26 07:36:50;;;;;;;35.33;6.32;;;13.40;99.90;;;;;;4941706;29;20118;-73
2023/05/26 07:39:16;;;;;;;28.73;5.07;;;13.50;99.90;;;;;;4956280;28;20063;-73
2023/05/26 07:41:42;;;;;;;31.75;5.07;;;13.60;99.90;;;;;;4956474;29;20034;-73
2023/05/26 07:44:08;;;;;;;30.13;5.50;;;13.80;99.90;;;;;;4947501;28;20032;-72
2023/05/26 07:46:33;;;;;;;35.33;5.80;;;13.80;99.90;;;;;;4949433;29;20530;-72
2023/05/26 07:48:59;;;;;;;29.85;5.35;;;14.00;99.90;;;;;;4940916;29;20032;-74
2023/05/26 07:51:25;;;;;;;23.42;5.40;;;14.10;99.90;;;;;;4950387;28;20409;-73
2023/05/26 07:53:50;;;;;;;28.20;5.78;;;14.20;99.90;;;;;;4955296;29;20031;-74
2023/05/26 07:56:16;;;;;;;21.58;4.50;;;14.30;99.90;;;;;;4956901;28;20046;-73
2023/05/26 07:58:42;;;;;;;33.50;5.18;;;14.50;99.90;;;;;;4943123;28;20102;-73
2023/05/26 08:01:07;;;;;;;26.70;4.72;;;14.50;99.90;;;;;;4956334;28;20081;-73
2023/05/26 08:03:34;;;;;;;22.73;5.00;;;14.70;99.90;;;;;;4952758;29;20039;-73
2023/05/26 08:06:00;;;;;;;21.77;4.32;;;14.80;99.90;;;;;;4955046;29;20031;-73
2023/05/26 08:08:25;;;;;;;41.00;6.53;;;14.90;99.90;;;;;;4951848;29;20426;-72
2023/05/26 08:10:52;;;;;;;37.42;5.72;;;15.00;99.90;;;;;;4947335;29;20027;-73
2023/05/26 08:13:17;;;;;;;30.15;5.30;;;15.10;99.90;;;;;;4956447;29;20023;-71
2023/05/26 08:15:43;;;;;;;27.58;5.45;;;15.30;99.90;;;;;;4953180;29;20039;-71
2023/05/26 08:18:09;;;;;;;21.05;4.70;;;15.30;99.90;;;;;;4955947;28;20044;-72
2023/05/26 08:20:34;;;;;;;21.98;4.95;;;15.50;99.90;;;;;;4955631;28;20042;-72
2023/05/26 08:23:00;;;;;;;25.13;5.38;;;15.60;99.90;;;;;;4949791;29;20018;-72
2023/05/26 08:25:26;;;;;;;26.60;4.82;;;15.60;99.90;;;;;;4955581;28;20020;-72
2023/05/26 08:27:52;;;;;;;28.52;5.53;;;15.60;99.90;;;;;;4953753;28;20015;-73
2023/05/26 08:30:18;;;;;;;27.48;4.80;;;15.60;99.90;;;;;;4955456;28;20467;-73
2023/05/26 08:32:43;;;;;;;23.60;4.72;;;15.70;99.90;;;;;;4955260;29;20078;-73
2023/05/26 08:35:10;;;;;;;26.77;4.88;;;15.80;99.90;;;;;;4954267;29;20031;-73
2023/05/26 08:37:36;;;;;;;26.42;5.00;;;15.80;99.90;;;;;;4955185;28;20031;-71
2023/05/26 08:40:04;;;;;;;25.40;5.18;;;16.00;99.90;;;;;;4955105;29;20054;-72
2023/05/26 08:42:33;;;;;;;28.75;5.25;;;16.20;99.90;;;;;;4955150;29;20023;-73
2023/05/26 08:45:00;;;;;;;23.77;4.57;;;16.40;99.90;;;;;;4952142;29;20075;-73
2023/05/26 08:47:27;;;;;;;25.77;4.85;;;16.60;99.90;;;;;;4947309;29;20034;-72
2023/05/26 08:49:59;;;;;;;32.28;5.10;;;16.70;99.90;;;;;;4955014;29;20419;-73
2023/05/26 08:52:25;;;;;;;21.00;4.05;;;16.70;99.90;;;;;;4943608;28;20482;-73
2023/05/26 08:54:50;;;;;;;27.17;4.78;;;16.80;99.90;;;;;;4954882;29;20032;-72
2023/05/26 08:57:19;;;;;;;26.80;5.07;;;16.90;99.90;;;;;;4958955;29;20037;-73
2023/05/26 08:59:47;;;;;;;26.10;4.57;;;16.90;99.90;;;;;;4953672;29;20368;-74
2023/05/26 09:02:12;;;;;;;22.55;5.00;;;17.00;99.90;;;;;;4948291;29;20042;-73
2023/05/26 09:04:39;;;;;;;27.35;4.45;;;17.10;99.90;;;;;;4951943;28;20031;-73
2023/05/26 09:07:08;;;;;;;24.27;4.97;;;17.20;99.90;;;;;;4954429;28;20027;-73
2023/05/26 09:09:34;;;;;;;21.60;4.70;;;17.10;99.90;;;;;;4954079;28;20050;-72
2023/05/26 09:11:59;;;;;;;22.02;4.43;;;17.20;99.90;;;;;;4953877;28;20035;-72
2023/05/26 09:14:25;;;;;;;19.55;4.65;;;17.40;99.90;;;;;;4953008;28;20027;-72
2023/05/26 09:16:54;;;;;;;28.38;5.15;;;17.50;99.90;;;;;;4954324;29;20030;-72
2023/05/26 09:19:20;;;;;;;21.23;4.45;;;17.60;99.90;;;;;;4954762;28;20054;-71
2023/05/26 09:21:47;;;;;;;19.27;4.18;;;17.60;99.90;;;;;;4954405;29;20027;-72
2023/05/26 09:24:17;;;;;;;24.75;4.90;;;17.70;99.90;;;;;;4954457;28;20016;-73
2023/05/26 09:26:48;;;;;;;25.98;5.13;;;17.70;99.90;;;;;;4954115;28;20055;-73
2023/05/26 09:29:14;;;;;;;22.00;4.35;;;17.90;99.90;;;;;;4951506;29;20094;-73
2023/05/26 09:31:45;;;;;;;18.15;4.50;;;18.00;99.90;;;;;;4935907;28;20024;-73
2023/05/26 09:34:12;;;;;;;21.52;4.82;;;18.00;99.60;;;;;;4946777;29;20035;-73
2023/05/26 09:36:38;;;;;;;24.17;4.70;;;18.10;99.10;;;;;;4934779;29;20114;-73
2023/05/26 09:39:09;;;;;;;23.88;5.05;;;18.10;98.00;;;;;;4946525;29;20066;-72
2023/05/26 09:41:42;;;;;;;23.35;5.20;;;18.10;98.70;;;;;;4956400;28;20023;-73
2023/05/26 09:44:18;;;;;;;20.17;4.22;;;18.20;98.00;;;;;;4955601;28;20350;-73
2023/05/26 09:46:45;;;;;;;19.10;4.28;;;18.20;97.30;;;;;;4955489;28;20027;-72
2023/05/26 09:49:15;;;;;;;23.50;4.75;;;18.20;97.70;;;;;;4954625;28;20067;-73
2023/05/26 09:51:42;;;;;;;19.58;4.28;;;18.30;96.60;;;;;;4954818;29;20031;-73
2023/05/26 09:54:12;;;;;;;23.60;5.20;;;18.20;95.00;;;;;;4955406;28;20430;-73
2023/05/26 09:56:47;;;;;;;24.92;4.80;;;18.20;95.60;;;;;;4953342;28;20055;-73
2023/05/26 09:59:15;;;;;;;20.88;4.50;;;18.30;95.50;;;;;;4946584;29;20041;-73
2023/05/26 10:01:42;;;;;;;19.30;4.65;;;18.40;94.80;;;;;;4949864;29;20039;-73
2023/05/26 10:04:09;;;;;;;17.27;4.22;;;18.50;94.80;;;;;;4948771;28;20038;-72
2023/05/26 10:06:36;;;;;;;22.27;4.57;;;18.50;94.20;;;;;;4948097;29;20038;-72
2023/05/26 10:09:04;;;;;;;20.30;4.90;;;18.60;93.30;;;;;;4955384;28;20059;-74
2023/05/26 10:11:32;;;;;;;20.48;4.70;;;18.60;92.80;;;;;;4955078;28;20024;-74
2023/05/26 10:13:58;;;;;;;16.10;3.95;;;18.70;91.40;;;;;;4955734;28;20027;-77
2023/05/26 10:16:24;;;;;;;18.95;4.45;;;18.70;91.60;;;;;;4957060;28;20027;-77
2023/05/26 10:18:50;;;;;;;17.70;4.10;;;18.70;90.40;;;;;;4956176;29;20031;-75
2023/05/26 10:21:21;;;;;;;18.05;4.45;;;18.70;90.40;;;;;;4952890;29;20020;-74
2023/05/26 10:24:13;;;;;;;22.20;4.72;;;18.90;90.40;;;;;;4956079;29;20086;-74
2023/05/26 10:26:56;;;;;;;17.40;4.28;;;19.00;89.00;;;;;;4961692;28;20035;-74
2023/05/26 10:29:46;;;;;;;19.75;4.53;;;19.00;89.00;;;;;;4943598;29;20046;-77
2023/05/26 10:32:43;;;;;;;20.90;4.82;;;18.90;90.00;;;;;;4946631;29;20024;-77
2023/05/26 10:35:28;;;;;;;18.02;4.53;;;19.00;89.60;;;;;;4945891;29;20027;-77
2023/05/26 10:38:03;;;;;;;23.05;4.50;;;19.10;90.10;;;;;;4951092;29;20043;-76
2023/05/26 10:40:50;;;;;;;17.60;4.80;;;19.20;87.70;;;;;;4954629;28;20059;-78
2023/05/26 10:43:21;;;;;;;22.55;5.00;;;19.20;86.00;;;;;;4951780;29;20042;-77
2023/05/26 10:46:03;;;;;;;21.92;4.90;;;19.20;85.80;;;;;;4954884;29;20504;-77
2023/05/26 10:48:41;;;;;;;15.65;3.78;;;19.40;83.90;;;;;;4954735;29;20473;-78
2023/05/26 10:51:14;;;;;;;15.90;4.38;;;19.30;82.60;;;;;;4954031;28;20023;-77
2023/05/26 10:53:42;;;;;;;21.23;4.97;;;19.20;82.30;;;;;;4954134;29;20086;-77
2023/05/26 10:56:12;;;;;;;18.70;5.07;;;19.00;79.60;;;;;;4955002;29;20027;-76
2023/05/26 10:58:41;;;;;;;22.15;4.45;;;19.00;82.40;;;;;;4955541;28;20374;-76
2023/05/26 11:01:12;;;;;;;14.60;3.88;;;18.90;79.70;;;;;;4954789;28;20113;-77
2023/05/26 11:03:47;;;;;;;20.13;4.65;;;19.00;80.10;;;;;;4954734;28;20020;-75
2023/05/26 11:06:15;;;;;;;15.88;4.68;;;19.20;80.00;;;;;;4945458;28;20033;-75
2023/05/26 11:08:45;;;;;;;17.38;4.25;;;19.20;80.80;;;;;;4954138;29;20045;-77
2023/05/26 11:11:26;;;;;;;17.42;4.05;;;19.40;78.40;;;;;;4955800;28;20662;-77
2023/05/26 11:14:03;;;;;;;15.48;4.45;;;19.50;78.40;;;;;;4956580;28;20034;-73
2023/05/26 11:16:36;;;;;;;14.52;4.28;;;19.60;79.30;;;;;;4956138;29;20023;-73
2023/05/26 11:19:07;;;;;;;16.38;4.45;;;19.60;76.80;;;;;;4955731;28;20027;-76
2023/05/26 11:21:34;;;;;;;16.15;4.32;;;19.70;76.70;;;;;;4955195;28;20032;-73
2023/05/26 11:24:02;;;;;;;17.33;4.55;;;19.80;75.90;;;;;;4954185;29;20023;-74
2023/05/26 11:26:32;;;;;;;19.50;4.53;;;20.00;74.90;;;;;;4956092;28;20020;-74
2023/05/26 11:29:03;;;;;;;13.30;4.60;;;20.00;73.40;;;;;;4956609;29;20050;-77
2023/05/26 11:31:29;;;;;;;19.77;4.72;;;19.90;73.40;;;;;;4958676;28;20070;-75
2023/05/26 11:33:56;;;;;;;18.33;4.38;;;19.90;73.90;;;;;;4965258;28;20031;-78
2023/05/26 11:36:28;;;;;;;20.38;4.72;;;19.90;75.00;;;;;;4977371;28;20020;-79
2023/05/26 11:38:58;;;;;;;15.10;4.60;;;19.90;76.30;;;;;;4971975;28;20532;-78
2023/05/26 11:41:26;;;;;;;22.45;5.40;;;20.00;76.90;;;;;;4960935;28;20027;-75
2023/05/26 11:43:55;;;;;;;23.02;4.70;;;19.90;77.40;;;;;;4958328;28;20168;-75
2023/05/26 11:46:32;;;;;;;17.30;4.50;;;20.00;77.20;;;;;;4957946;28;20066;-75
2023/05/26 11:49:00;;;;;;;19.13;4.70;;;20.00;77.60;;;;;;4958650;28;20110;-77
2023/05/26 11:51:26;;;;;;;25.08;4.90;;;19.90;78.70;;;;;;4956414;29;20031;-75
2023/05/26 11:53:54;;;;;;;20.98;3.90;;;20.00;78.20;;;;;;4957864;28;20492;-77
2023/05/26 11:56:20;;;;;;;15.07;4.45;;;20.20;78.60;;;;;;4960938;28;20031;-75
2023/05/26 11:58:53;;;;;;;17.48;4.15;;;20.30;76.70;;;;;;4957287;28;20027;-76
2023/05/26 12:01:21;;;;;;;21.15;4.97;;;20.50;76.50;;;;;;4956455;28;20031;-75
2023/05/26 12:03:49;;;;;;;22.55;4.60;;;20.60;75.20;;;;;;4955387;29;20031;-74
2023/05/26 12:06:20;;;;;;;16.17;3.55;;;20.50;75.00;;;;;;4956175;28;20098;-75
2023/05/26 12:09:02;;;;;;;16.50;3.97;;;20.60;73.90;;;;;;4956519;28;20125;-74
2023/05/26 12:11:37;;;;;;;21.65;3.88;;;20.70;73.40;;;;;;4956777;28;20436;-76
2023/05/26 12:14:13;;;;;;;18.30;4.47;;;20.70;71.50;;;;;;4956669;29;20023;-75
2023/05/26 12:16:44;;;;;;;20.70;4.78;;;20.60;68.20;;;;;;4956041;28;20090;-73
2023/05/26 12:19:16;;;;;;;32.85;5.55;;;20.60;69.50;;;;;;4956212;29;20043;-74
2023/05/26 12:21:46;;;;;;;18.25;3.80;;;20.60;70.60;;;;;;4949915;28;20039;-77
2023/05/26 12:24:13;;;;;;;13.75;3.03;;;20.60;68.10;;;;;;4954853;29;20082;-76
2023/05/26 12:26:40;;;;;;;16.30;3.95;;;20.60;63.70;;;;;;4956099;29;20050;-75
2023/05/26 12:29:10;;;;;;;18.52;3.78;;;20.60;64.30;;;;;;4955028;29;20031;-75
2023/05/26 12:31:50;;;;;;;13.27;3.72;;;20.60;62.70;;;;;;4943584;28;20024;-75
2023/05/26 12:34:25;;;;;;;16.13;3.60;;;20.60;64.30;;;;;;4955653;28;20058;-74
2023/05/26 12:36:51;;;;;;;20.08;4.00;;;20.70;64.40;;;;;;4953213;28;20090;-75
2023/05/26 12:39:18;;;;;;;16.10;3.90;;;20.70;64.90;;;;;;4953509;28;20086;-74
2023/05/26 12:41:47;;;;;;;15.48;3.75;;;20.70;65.30;;;;;;4951728;29;20024;-75
2023/05/26 12:44:16;;;;;;;19.63;3.92;;;20.60;64.80;;;;;;4946758;29;20034;-74